Time;durP1;ratioP1;P1;durP2;ratioP2;P2;SDS_P1;SDS_P2;PMS_P1;PMS_P2;Temp;Humidity;BMP_temperature;BMP_pressure;BME280_temperature;BME280_humidity;BME280_pressure;Samples;Min_cycle;Max_cycle;Signal;HPM_P1;HPM_P2
2021/10/22 00:01:14;;;;;;;1.40;0.40;;;;;;;10.27;44.13;95974.29;115538;1192;25030;-88
2021/10/22 00:03:42;;;;;;;1.80;0.50;;;;;;;10.25;44.26;95978.03;115589;1198;24420;-89
2021/10/22 00:06:10;;;;;;;0.70;0.40;;;;;;;10.21;44.43;95971.63;115359;1199;26214;-88
2021/10/22 00:08:38;;;;;;;0.40;0.30;;;;;;;10.19;44.32;95974.10;115381;1199;25317;-89
2021/10/22 00:11:06;;;;;;;2.40;0.50;;;;;;;10.22;44.34;95984.18;115437;1199;30373;-89
2021/10/22 00:13:34;;;;;;;1.90;0.60;;;;;;;10.23;44.41;95986.87;115429;1199;27584;-89
2021/10/22 00:16:03;;;;;;;1.90;0.60;;;;;;;10.21;44.53;95987.95;115437;1192;33147;-89
2021/10/22 00:18:31;;;;;;;1.20;0.30;;;;;;;10.19;44.66;95988.93;115219;1200;25246;-88
2021/10/22 00:21:00;;;;;;;0.80;0.30;;;;;;;10.17;44.93;96001.95;115282;1200;25460;-89
2021/10/22 00:23:28;;;;;;;0.40;0.40;;;;;;;10.15;45.09;95998.54;115424;1193;26923;-88
2021/10/22 00:25:56;;;;;;;2.60;0.40;;;;;;;10.12;45.27;95989.70;115411;1199;26143;-89
2021/10/22 00:28:24;;;;;;;1.40;0.60;;;;;;;10.14;45.29;95985.88;115438;1192;27110;-89
2021/10/22 00:30:52;;;;;;;0.80;0.50;;;;;;;10.14;45.43;95994.73;115404;1199;27459;-88
2021/10/22 00:33:20;;;;;;;2.10;0.80;;;;;;;10.13;45.69;95994.44;115359;1199;26176;-88
2021/10/22 00:35:48;;;;;;;1.40;0.50;;;;;;;10.07;46.00;95989.59;115400;1198;25910;-89
2021/10/22 00:38:16;;;;;;;1.10;0.50;;;;;;;10.06;46.15;95988.86;115428;1199;27220;-88
2021/10/22 00:40:45;;;;;;;1.70;0.50;;;;;;;10.04;46.26;95993.34;115457;1199;26175;-89
2021/10/22 00:43:15;;;;;;;0.70;0.30;;;;;;;10.03;46.48;95998.41;115541;1199;25578;-88
2021/10/22 00:45:43;;;;;;;1.30;0.50;;;;;;;10.02;46.73;95987.18;115491;1199;24951;-89
2021/10/22 00:48:11;;;;;;;1.10;0.50;;;;;;;10.03;46.85;95986.11;115501;1193;27508;-89
2021/10/22 00:50:41;;;;;;;1.70;0.50;;;;;;;10.01;46.92;95988.01;115457;1199;25747;-89
2021/10/22 00:53:11;;;;;;;1.70;0.30;;;;;;;9.97;47.08;95991.33;115417;1199;27320;-89
2021/10/22 00:55:40;;;;;;;1.60;0.60;;;;;;;9.96;47.17;95986.75;115388;1199;25191;-89
2021/10/22 00:58:10;;;;;;;0.40;0.30;;;;;;;9.97;47.30;95989.63;115548;1198;25557;-89
2021/10/22 01:00:39;;;;;;;1.00;0.30;;;;;;;9.94;47.48;95996.27;115522;1193;34468;-89
2021/10/22 01:03:09;;;;;;;0.70;0.40;;;;;;;9.90;47.57;95993.30;115510;1198;25796;-89
2021/10/22 01:05:37;;;;;;;1.70;0.60;;;;;;;9.92;47.61;95991.20;115454;1199;24461;-89
2021/10/22 01:08:08;;;;;;;0.30;0.30;;;;;;;9.96;47.74;95994.15;115414;1192;25259;-89
2021/10/22 01:10:39;;;;;;;0.70;0.40;;;;;;;9.96;47.81;95985.73;115458;1192;26276;-89
2021/10/22 01:13:08;;;;;;;3.50;0.70;;;;;;;10.01;47.89;95993.90;115389;1199;26128;-89
2021/10/22 01:15:36;;;;;;;1.90;0.30;;;;;;;9.96;47.94;95994.89;115446;1198;23996;-89
2021/10/22 01:18:04;;;;;;;3.00;0.50;;;;;;;9.91;48.06;95991.95;115536;1199;26257;-88
2021/10/22 01:20:37;;;;;;;1.60;0.30;;;;;;;9.90;48.25;95985.94;115485;1198;25253;-89
2021/10/22 01:23:05;;;;;;;1.90;0.60;;;;;;;9.90;48.38;95988.80;115338;1199;35759;-89
2021/10/22 01:25:33;;;;;;;1.40;0.30;;;;;;;9.94;48.48;95986.57;115407;1193;26048;-89
2021/10/22 01:28:02;;;;;;;1.60;0.60;;;;;;;9.94;48.64;95989.53;115254;1200;24834;-89
2021/10/22 01:30:31;;;;;;;2.50;0.50;;;;;;;9.93;48.78;95988.87;115448;1199;24783;-88
2021/10/22 01:33:05;;;;;;;1.10;0.50;;;;;;;9.95;48.98;95987.77;115517;1199;25469;-89
2021/10/22 01:35:34;;;;;;;1.00;0.50;;;;;;;9.98;49.04;95984.27;115457;1199;27878;-89
2021/10/22 01:38:02;;;;;;;2.50;0.60;;;;;;;9.97;49.11;95979.95;115421;1199;24947;-89
2021/10/22 01:40:31;;;;;;;1.80;0.60;;;;;;;9.98;49.32;95990.31;115441;1199;29200;-89
2021/10/22 01:42:59;;;;;;;1.00;0.40;;;;;;;9.96;49.39;95987.05;115461;1199;26809;-88
2021/10/22 01:45:27;;;;;;;2.20;0.60;;;;;;;9.95;49.57;95992.42;115434;1193;26706;-88
2021/10/22 01:47:55;;;;;;;2.60;0.60;;;;;;;9.96;49.52;95989.23;115412;1199;27490;-88
2021/10/22 01:50:23;;;;;;;2.50;0.80;;;;;;;9.97;49.64;95995.89;115416;1199;27669;-88
2021/10/22 01:52:51;;;;;;;1.50;0.40;;;;;;;9.97;49.71;95998.42;115466;1199;25639;-87
2021/10/22 01:55:19;;;;;;;1.20;0.40;;;;;;;9.96;49.77;95999.63;115500;1198;25799;-89
2021/10/22 01:57:47;;;;;;;0.90;0.50;;;;;;;9.94;49.83;96002.71;115512;1199;25596;-88
2021/10/22 02:00:15;;;;;;;1.70;0.50;;;;;;;9.92;49.92;96005.23;115481;1199;26884;-89
2021/10/22 02:02:43;;;;;;;0.60;0.50;;;;;;;9.89;49.97;96006.13;115530;1192;25557;-88
2021/10/22 02:05:12;;;;;;;0.70;0.30;;;;;;;9.85;50.12;96004.28;115642;1184;24997;-88
2021/10/22 02:07:40;;;;;;;2.10;0.70;;;;;;;9.82;50.28;96000.25;115379;1199;26287;-89
2021/10/22 02:10:09;;;;;;;0.70;0.40;;;;;;;9.79;50.26;96001.98;115464;1197;25792;-88
2021/10/22 02:12:37;;;;;;;1.60;0.50;;;;;;;9.80;50.41;95999.59;115411;1199;27612;-88
2021/10/22 02:15:07;;;;;;;2.50;0.50;;;;;;;9.81;50.42;95998.40;115393;1199;25629;-88
2021/10/22 02:17:36;;;;;;;1.20;0.50;;;;;;;9.83;50.51;96005.52;115401;1199;27960;-89
2021/10/22 02:20:05;;;;;;;2.10;0.60;;;;;;;9.79;50.61;96011.41;115427;1199;25177;-89
2021/10/22 02:22:33;;;;;;;1.10;0.30;;;;;;;9.75;50.67;96007.46;115228;1200;27313;-89
2021/10/22 02:25:01;;;;;;;2.40;0.60;;;;;;;9.73;50.74;96010.77;115256;1193;26970;-89
2021/10/22 02:27:29;;;;;;;0.90;0.50;;;;;;;9.71;50.82;96013.29;115422;1199;26731;-89
2021/10/22 02:29:57;;;;;;;0.90;0.40;;;;;;;9.69;51.03;96007.54;115407;1199;27440;-89
2021/10/22 02:32:25;;;;;;;2.60;0.50;;;;;;;9.64;51.15;96007.98;115358;1199;27268;-90
2021/10/22 02:34:53;;;;;;;1.80;0.50;;;;;;;9.62;51.23;96005.01;115584;1198;26474;-89
2021/10/22 02:37:21;;;;;;;1.30;0.30;;;;;;;9.59;51.27;95996.22;115563;1198;23537;-89
2021/10/22 02:39:49;;;;;;;0.80;0.40;;;;;;;9.60;51.41;95993.81;115588;1199;26287;-89
2021/10/22 02:42:17;;;;;;;0.70;0.30;;;;;;;9.61;51.37;95992.48;115576;1198;27487;-89
2021/10/22 02:44:45;;;;;;;1.40;0.50;;;;;;;9.58;51.58;95988.98;115664;1198;26995;-89
2021/10/22 02:47:13;;;;;;;1.60;0.60;;;;;;;9.58;51.66;95996.27;115549;1199;24258;-89
2021/10/22 02:49:41;;;;;;;1.40;0.50;;;;;;;9.58;51.76;95989.23;115453;1199;26601;-89
2021/10/22 02:52:09;;;;;;;0.60;0.40;;;;;;;9.60;51.89;95990.63;115420;1199;25186;-88
2021/10/22 02:54:37;;;;;;;0.60;0.40;;;;;;;9.60;51.86;95980.58;115478;1198;27645;-88
2021/10/22 02:57:05;;;;;;;0.40;0.30;;;;;;;9.67;51.84;95977.60;115410;1194;27480;-88
2021/10/22 02:59:33;;;;;;;2.00;0.50;;;;;;;9.76;51.75;95992.67;115440;1199;27191;-89
2021/10/22 03:02:01;;;;;;;0.70;0.40;;;;;;;9.77;51.87;95997.91;115442;1184;24528;-89
2021/10/22 03:04:30;;;;;;;1.30;0.40;;;;;;;9.75;51.91;96001.73;115605;1198;25635;-88
2021/10/22 03:06:58;;;;;;;1.10;0.40;;;;;;;9.75;51.91;96009.41;115511;1198;24810;-89
2021/10/22 03:09:26;;;;;;;1.40;0.50;;;;;;;9.75;51.98;96005.33;115484;1199;24897;-89
2021/10/22 03:11:54;;;;;;;0.90;0.30;;;;;;;9.75;51.99;96010.21;115532;1198;27024;-89
2021/10/22 03:14:21;;;;;;;1.30;0.50;;;;;;;9.75;52.13;96013.11;115374;1199;26785;-89
2021/10/22 03:16:50;;;;;;;2.70;0.40;;;;;;;9.72;52.24;96016.17;115265;1193;25158;-89
2021/10/22 03:19:18;;;;;;;1.60;0.60;;;;;;;9.68;52.29;96010.71;115621;1199;30195;-90
2021/10/22 03:21:46;;;;;;;1.00;0.40;;;;;;;9.67;52.32;96018.52;115597;1198;25227;-87
2021/10/22 03:24:14;;;;;;;2.00;0.40;;;;;;;9.64;52.41;96019.52;115572;1199;24093;-89
2021/10/22 03:26:42;;;;;;;2.10;0.50;;;;;;;9.61;52.56;96017.92;115625;1184;25194;-89
2021/10/22 03:29:10;;;;;;;2.20;0.70;;;;;;;9.58;52.70;96016.85;115374;1198;26743;-89
2021/10/22 03:31:38;;;;;;;1.10;0.40;;;;;;;9.56;52.78;96028.14;115533;1199;25202;-89
2021/10/22 03:34:06;;;;;;;1.60;0.50;;;;;;;9.53;52.74;96036.02;115545;1193;25094;-89
2021/10/22 03:36:35;;;;;;;2.70;0.50;;;;;;;9.52;52.90;96041.05;115522;1198;27050;-89
2021/10/22 03:39:04;;;;;;;2.30;0.50;;;;;;;9.51;53.18;96045.51;115574;1199;24025;-90
2021/10/22 03:41:32;;;;;;;2.10;0.60;;;;;;;9.52;53.25;96043.16;115437;1199;28370;-90
2021/10/22 03:44:00;;;;;;;1.70;0.60;;;;;;;9.54;53.31;96042.72;115423;1193;27934;-90
2021/10/22 03:46:28;;;;;;;1.60;0.70;;;;;;;9.50;53.39;96038.27;115436;1199;28480;-90
2021/10/22 03:48:57;;;;;;;1.10;0.60;;;;;;;9.49;53.58;96041.21;115592;1198;25856;-88
2021/10/22 03:51:25;;;;;;;2.50;0.70;;;;;;;9.47;53.72;96042.61;115550;1199;35506;-89
2021/10/22 03:53:53;;;;;;;1.20;0.50;;;;;;;9.44;53.73;96049.23;115233;1200;26723;-90
2021/10/22 03:56:21;;;;;;;0.90;0.50;;;;;;;9.42;53.98;96059.54;115363;1185;25318;-90
2021/10/22 03:58:49;;;;;;;2.10;0.70;;;;;;;9.40;53.94;96069.19;115594;1198;27385;-89
2021/10/22 04:01:18;;;;;;;1.30;0.30;;;;;;;9.36;54.28;96077.02;115536;1199;29549;-90
2021/10/22 04:03:46;;;;;;;2.40;0.60;;;;;;;9.38;54.49;96076.46;115595;1198;26909;-89
2021/10/22 04:06:15;;;;;;;1.30;0.50;;;;;;;9.46;54.47;96076.80;115588;1184;28521;-89
2021/10/22 04:08:43;;;;;;;1.60;0.50;;;;;;;9.51;54.56;96079.91;115263;1200;27575;-89
2021/10/22 04:11:11;;;;;;;1.40;0.50;;;;;;;9.56;54.59;96076.98;115545;1199;26531;-89
2021/10/22 04:13:39;;;;;;;1.00;0.40;;;;;;;9.55;54.56;96074.55;115523;1199;29238;-90
2021/10/22 04:16:07;;;;;;;3.10;0.60;;;;;;;9.50;54.69;96073.36;115344;1199;33270;-89
2021/10/22 04:18:35;;;;;;;0.90;0.30;;;;;;;9.48;54.76;96079.64;115397;1199;25089;-89
2021/10/22 04:21:03;;;;;;;1.50;0.60;;;;;;;9.47;54.79;96084.15;115415;1199;30466;-89
2021/10/22 04:23:31;;;;;;;2.00;0.60;;;;;;;9.44;54.84;96090.01;115404;1199;30512;-88
2021/10/22 04:25:59;;;;;;;1.10;0.90;;;;;;;9.42;55.11;96092.18;115438;1193;27030;-89
2021/10/22 04:28:27;;;;;;;0.40;0.30;;;;;;;9.45;55.16;96091.05;115410;1198;28390;-89
2021/10/22 04:30:56;;;;;;;2.80;0.60;;;;;;;9.51;55.22;96092.30;115391;1199;25609;-88
2021/10/22 04:33:24;;;;;;;2.20;0.40;;;;;;;9.53;55.27;96091.30;115448;1193;25432;-89
2021/10/22 04:35:52;;;;;;;2.30;1.00;;;;;;;9.57;55.10;96087.14;115436;1199;25855;-89
2021/10/22 04:41:06;;;;;;;1.80;0.70;;;;;;;9.58;55.26;96094.77;115466;1199;26671;-89
2021/10/22 04:43:35;;;;;;;1.70;0.70;;;;;;;9.55;55.31;96096.32;115460;1199;25793;-89
2021/10/22 04:46:03;;;;;;;2.10;0.70;;;;;;;9.52;55.31;96102.75;115493;1199;25030;-89
2021/10/22 04:48:31;;;;;;;1.50;0.50;;;;;;;9.51;55.45;96112.83;115369;1199;25275;-89
2021/10/22 04:50:59;;;;;;;1.50;0.60;;;;;;;9.49;55.60;96115.83;115535;1193;32439;-90
2021/10/22 04:53:27;;;;;;;1.80;0.60;;;;;;;9.49;55.76;96128.46;115564;1199;33130;-89
2021/10/22 04:55:55;;;;;;;0.70;0.50;;;;;;;9.46;55.80;96122.01;115442;1199;26563;-89
2021/10/22 04:58:23;;;;;;;4.20;0.90;;;;;;;9.42;55.88;96130.28;115203;1200;26915;-89
2021/10/22 05:00:52;;;;;;;3.50;0.70;;;;;;;9.37;56.08;96126.27;115397;1192;26049;-88
2021/10/22 05:03:21;;;;;;;1.30;0.70;;;;;;;9.31;56.29;96129.27;115491;1199;25687;-90
2021/10/22 05:05:49;;;;;;;1.40;0.60;;;;;;;9.27;56.53;96129.83;115390;1199;25998;-89
2021/10/22 05:08:17;;;;;;;1.20;0.50;;;;;;;9.25;56.58;96134.17;115417;1199;26097;-89
2021/10/22 05:10:45;;;;;;;1.70;0.60;;;;;;;9.25;56.61;96135.61;115485;1199;27061;-88
2021/10/22 05:13:14;;;;;;;2.50;0.70;;;;;;;9.24;56.84;96137.26;115566;1198;25680;-88
2021/10/22 05:15:43;;;;;;;1.90;0.40;;;;;;;9.24;56.88;96150.85;115594;1198;35359;-89
2021/10/22 05:18:11;;;;;;;3.50;0.80;;;;;;;9.23;56.97;96156.42;115563;1199;25613;-88
2021/10/22 05:20:39;;;;;;;3.30;0.80;;;;;;;9.22;57.07;96162.56;115557;1193;26491;-89
2021/10/22 05:23:07;;;;;;;3.40;0.60;;;;;;;9.21;57.28;96167.06;115540;1194;26333;-89
2021/10/22 05:25:36;;;;;;;3.30;0.70;;;;;;;9.22;57.46;96171.82;115587;1198;26016;-90
2021/10/22 05:28:05;;;;;;;2.90;1.00;;;;;;;9.21;57.35;96177.80;115536;1198;28503;-89
2021/10/22 05:30:34;;;;;;;2.20;0.70;;;;;;;9.21;57.38;96182.89;115217;1199;30901;-89
2021/10/22 05:33:03;;;;;;;3.10;0.50;;;;;;;9.20;57.57;96182.80;115169;1200;24892;-89
2021/10/22 05:35:31;;;;;;;1.30;0.70;;;;;;;9.20;57.71;96191.00;115464;1198;28800;-89
2021/10/22 05:37:59;;;;;;;2.80;0.90;;;;;;;9.17;57.80;96192.56;115351;1199;29021;-89
2021/10/22 05:40:27;;;;;;;1.40;0.70;;;;;;;9.14;57.84;96199.62;115417;1199;31571;-90
2021/10/22 05:42:55;;;;;;;4.70;0.90;;;;;;;9.12;58.00;96203.96;115409;1199;26067;-89
2021/10/22 05:45:23;;;;;;;1.20;0.70;;;;;;;9.09;58.19;96219.07;115346;1192;25236;-90
2021/10/22 05:47:51;;;;;;;4.00;0.80;;;;;;;9.08;58.30;96224.58;115402;1193;26665;-89
2021/10/22 05:50:19;;;;;;;3.20;0.90;;;;;;;9.09;58.30;96237.05;115419;1199;25624;-89
2021/10/22 05:52:47;;;;;;;3.30;0.90;;;;;;;9.09;58.26;96245.83;115424;1184;27971;-87
2021/10/22 05:55:16;;;;;;;1.20;0.70;;;;;;;9.10;58.36;96251.59;115458;1193;24207;-89
2021/10/22 05:57:44;;;;;;;2.80;1.10;;;;;;;9.13;58.32;96255.25;115478;1199;27008;-89
2021/10/22 06:00:14;;;;;;;3.10;1.00;;;;;;;9.18;58.26;96262.59;115506;1199;29160;-89
2021/10/22 06:02:42;;;;;;;1.40;0.70;;;;;;;9.23;58.36;96264.59;115402;1199;26154;-89
2021/10/22 06:05:10;;;;;;;2.40;0.90;;;;;;;9.66;58.53;96267.00;115529;1198;27423;-90
2021/10/22 06:07:38;;;;;;;1.90;0.90;;;;;;;10.77;57.81;96263.55;115524;1199;24936;-90
2021/10/22 06:10:07;;;;;;;2.90;0.90;;;;;;;11.74;56.39;96270.59;115401;1199;28096;-89
2021/10/22 06:12:36;;;;;;;3.80;1.30;;;;;;;12.42;55.66;96265.62;115474;1198;27685;-88
2021/10/22 06:15:06;;;;;;;3.60;1.20;;;;;;;12.60;54.20;96273.36;115382;1199;28497;-88
2021/10/22 06:17:34;;;;;;;2.60;0.80;;;;;;;12.33;54.11;96278.73;115418;1199;25230;-88
2021/10/22 06:20:10;;;;;;;2.30;0.80;;;;;;;11.96;53.88;96277.48;115433;1198;28247;-89
2021/10/22 06:22:52;;;;;;;2.00;0.90;;;;;;;11.61;54.11;96283.66;115393;1199;26448;-90
2021/10/22 06:25:20;;;;;;;2.80;0.80;;;;;;;11.36;54.36;96288.27;115387;1199;29063;-90
2021/10/22 06:27:49;;;;;;;3.30;0.70;;;;;;;11.16;54.76;96288.16;115440;1199;25645;-90
2021/10/22 06:30:18;;;;;;;5.50;1.20;;;;;;;11.00;55.02;96290.23;115366;1199;29016;-89
2021/10/22 06:32:46;;;;;;;2.30;0.70;;;;;;;10.83;54.99;96290.20;115454;1199;28655;-89
2021/10/22 06:35:14;;;;;;;2.80;0.90;;;;;;;10.57;55.20;96291.04;115485;1199;25897;-89
2021/10/22 06:37:43;;;;;;;3.00;0.80;;;;;;;10.34;55.42;96294.83;115503;1193;28476;-89
2021/10/22 06:40:12;;;;;;;1.60;1.10;;;;;;;10.19;55.84;96299.07;115405;1199;28034;-90
2021/10/22 06:42:40;;;;;;;2.60;0.80;;;;;;;10.06;56.17;96301.58;115415;1199;26541;-89
2021/10/22 06:45:11;;;;;;;2.90;1.10;;;;;;;9.96;56.31;96305.39;115448;1199;25234;-89
2021/10/22 06:47:40;;;;;;;3.40;0.90;;;;;;;9.89;56.76;96310.40;115404;1199;27219;-89
2021/10/22 06:50:09;;;;;;;2.60;0.80;;;;;;;9.84;56.88;96314.63;115370;1198;27267;-89
2021/10/22 06:52:37;;;;;;;8.10;2.10;;;;;;;9.84;57.05;96321.24;115459;1199;26558;-89
2021/10/22 06:55:06;;;;;;;27.70;7.80;;;;;;;9.82;57.17;96326.71;115185;1199;25908;-89
2021/10/22 06:57:39;;;;;;;8.60;3.00;;;;;;;9.81;57.31;96331.34;115486;1199;27359;-89
2021/10/22 07:00:09;;;;;;;59.00;19.90;;;;;;;9.80;57.37;96330.07;115463;1199;25817;-89
2021/10/22 07:02:48;;;;;;;42.30;15.50;;;;;;;9.88;57.32;96331.02;115559;1192;26559;-88
2021/10/22 07:05:33;;;;;;;18.40;8.40;;;;;;;10.07;57.59;96337.44;115595;1198;27618;-90
2021/10/22 07:08:03;;;;;;;9.30;3.40;;;;;;;10.63;58.01;96343.21;115572;1193;26496;-89
2021/10/22 07:10:33;;;;;;;6.10;2.40;;;;;;;11.26;56.99;96341.55;115270;1199;30065;-89
2021/10/22 07:13:03;;;;;;;4.20;1.80;;;;;;;11.45;56.73;96343.55;115389;1198;29287;-89
2021/10/22 07:15:32;;;;;;;5.80;1.50;;;;;;;11.62;56.38;96339.17;115686;1199;30360;-89
2021/10/22 07:18:01;;;;;;;13.60;5.00;;;;;;;11.49;56.03;96341.42;115460;1192;27399;-89
2021/10/22 07:20:30;;;;;;;4.00;2.20;;;;;;;11.55;56.00;96344.09;115349;1199;27632;-89
2021/10/22 07:23:03;;;;;;;3.90;1.40;;;;;;;11.61;55.80;96348.44;115366;1199;29685;-89
2021/10/22 07:25:33;;;;;;;2.70;1.80;;;;;;;11.69;55.56;96345.98;115462;1198;27621;-89
2021/10/22 07:28:06;;;;;;;4.60;2.20;;;;;;;11.43;54.83;96348.90;115509;1199;28359;-88
2021/10/22 07:30:35;;;;;;;4.00;1.30;;;;;;;11.36;55.55;96347.41;115530;1199;29139;-89
2021/10/22 07:33:03;;;;;;;3.20;1.10;;;;;;;12.07;55.67;96351.69;115483;1198;26992;-89
2021/10/22 07:35:37;;;;;;;3.80;1.30;;;;;;;11.96;54.50;96354.67;115390;1192;28676;-89
2021/10/22 07:38:10;;;;;;;2.90;1.20;;;;;;;11.73;54.58;96350.96;115386;1199;28066;-89
2021/10/22 07:40:38;;;;;;;2.30;1.00;;;;;;;11.51;54.83;96362.67;115457;1199;26517;-89
2021/10/22 07:43:07;;;;;;;2.70;1.30;;;;;;;11.34;54.98;96355.46;115386;1199;28694;-88
2021/10/22 07:45:35;;;;;;;6.30;1.60;;;;;;;11.58;55.92;96359.55;115410;1199;30980;-89
2021/10/22 07:48:03;;;;;;;3.30;1.20;;;;;;;12.19;55.55;96353.83;115538;1199;28578;-89
2021/10/22 07:50:31;;;;;;;2.10;1.10;;;;;;;12.00;54.47;96359.56;115413;1199;27450;-90
2021/10/22 07:52:59;;;;;;;5.30;1.20;;;;;;;11.87;54.63;96360.52;115404;1192;26444;-88
2021/10/22 07:55:28;;;;;;;2.70;1.30;;;;;;;12.08;55.02;96360.16;115552;1198;26672;-89
2021/10/22 07:57:56;;;;;;;3.40;1.10;;;;;;;12.70;55.01;96359.48;115428;1192;36795;-89
2021/10/22 08:00:24;;;;;;;7.90;2.80;;;;;;;13.30;53.19;96352.47;115435;1199;25896;-88
2021/10/22 08:02:52;;;;;;;4.30;1.50;;;;;;;13.50;51.86;96348.55;115473;1187;27196;-88
2021/10/22 08:05:20;;;;;;;3.40;1.20;;;;;;;13.46;50.34;96347.11;115504;1199;25890;-89
2021/10/22 08:07:48;;;;;;;2.90;1.20;;;;;;;13.10;49.23;96354.23;115282;1199;29602;-89
2021/10/22 08:10:16;;;;;;;2.90;1.10;;;;;;;12.82;49.78;96359.79;115669;1198;29913;-89
2021/10/22 08:12:46;;;;;;;4.30;1.50;;;;;;;12.97;49.88;96354.20;115534;1194;36666;-88
2021/10/22 08:15:14;;;;;;;2.10;1.10;;;;;;;12.88;49.25;96353.84;115513;1199;28364;-89
2021/10/22 08:17:42;;;;;;;3.80;0.80;;;;;;;12.70;50.02;96356.95;115482;1199;24835;-89
2021/10/22 08:20:17;;;;;;;4.30;1.30;;;;;;;12.89;50.00;96352.19;115422;1198;25529;-88
2021/10/22 08:22:45;;;;;;;3.10;1.00;;;;;;;12.96;49.63;96358.31;115473;1199;25350;-88
2021/10/22 08:25:14;;;;;;;10.90;5.00;;;;;;;13.08;49.68;96357.71;115363;1199;31123;-88
2021/10/22 08:27:45;;;;;;;4.70;1.30;;;;;;;13.10;49.07;96355.76;115491;1199;30167;-88
2021/10/22 08:30:17;;;;;;;1.20;0.80;;;;;;;12.93;49.02;96361.77;115423;1199;32331;-89
2021/10/22 08:32:49;;;;;;;0.90;0.70;;;;;;;12.68;49.30;96364.05;115438;1199;27879;-89
2021/10/22 08:35:18;;;;;;;1.60;0.70;;;;;;;12.42;49.06;96358.98;115416;1199;26648;-87
2021/10/22 08:37:48;;;;;;;1.10;0.60;;;;;;;12.19;49.24;96361.56;115448;1198;26325;-89
2021/10/22 08:40:17;;;;;;;2.60;1.00;;;;;;;12.00;49.60;96363.75;115636;1199;26288;-89
2021/10/22 08:42:47;;;;;;;1.70;0.70;;;;;;;11.86;50.09;96366.17;115610;1199;24041;-89
2021/10/22 08:45:17;;;;;;;0.70;0.70;;;;;;;11.67;50.39;96365.61;115602;1198;37135;-88
2021/10/22 08:47:45;;;;;;;4.10;0.90;;;;;;;11.48;50.79;96371.02;115602;1199;25369;-89
2021/10/22 08:50:15;;;;;;;2.20;0.80;;;;;;;11.35;51.23;96375.86;115468;1199;24212;-88
2021/10/22 08:52:44;;;;;;;4.20;1.30;;;;;;;11.31;51.60;96379.13;115423;1193;41876;-88
2021/10/22 08:55:15;;;;;;;1.30;0.80;;;;;;;11.20;51.72;96380.28;115475;1193;25431;-88
2021/10/22 08:57:44;;;;;;;1.20;0.80;;;;;;;11.03;51.89;96382.15;115423;1199;25837;-88
2021/10/22 09:00:15;;;;;;;2.00;1.10;;;;;;;10.86;52.29;96384.25;115452;1193;25005;-88
2021/10/22 09:02:45;;;;;;;1.80;1.10;;;;;;;10.77;52.57;96389.62;115486;1199;28340;-88
2021/10/22 09:05:17;;;;;;;1.40;0.90;;;;;;;10.75;52.70;96387.11;115246;1193;24069;-88
2021/10/22 09:07:46;;;;;;;11.00;5.30;;;;;;;10.71;52.65;96387.20;115263;1200;25357;-88
2021/10/22 09:10:17;;;;;;;2.70;1.40;;;;;;;10.70;52.76;96383.08;115616;1199;23976;-88
2021/10/22 09:12:51;;;;;;;6.40;3.00;;;;;;;10.67;53.21;96391.52;115592;1199;26106;-87
2021/10/22 09:15:23;;;;;;;10.90;4.30;;;;;;;10.64;53.27;96389.50;115464;1198;24014;-87
2021/10/22 09:17:52;;;;;;;13.40;6.60;;;;;;;10.64;53.67;96388.55;115512;1199;24328;-88
2021/10/22 09:20:21;;;;;;;6.90;2.30;;;;;;;10.72;53.65;96390.52;115492;1193;25607;-88
2021/10/22 09:22:53;;;;;;;3.50;1.80;;;;;;;10.74;53.36;96390.09;115417;1193;26945;-87
2021/10/22 09:25:24;;;;;;;3.30;1.40;;;;;;;10.78;52.99;96391.09;115420;1193;29026;-87
2021/10/22 09:27:56;;;;;;;2.70;0.80;;;;;;;10.90;52.67;96391.71;115604;1198;25414;-89
2021/10/22 09:30:36;;;;;;;2.80;1.10;;;;;;;10.99;52.33;96390.50;115527;1194;26300;-88
2021/10/22 09:33:07;;;;;;;1.90;0.90;;;;;;;11.00;52.06;96394.64;115348;1199;24898;-89
2021/10/22 09:35:37;;;;;;;;;;;;;;;11.08;51.66;96387.19;115577;1192;25737;-88
2021/10/22 09:38:23;;;;;;;1.30;0.80;;;;;;;11.18;51.07;96381.06;115489;1198;26432;-87
2021/10/22 09:40:57;;;;;;;2.00;0.70;;;;;;;11.28;50.52;96387.45;115248;1193;27486;-88
2021/10/22 09:43:30;;;;;;;2.20;0.40;;;;;;;11.29;50.34;96395.33;115368;1199;25745;-87
2021/10/22 09:46:13;;;;;;;1.90;0.90;;;;;;;11.23;50.40;96390.69;115335;1199;27379;-88
2021/10/22 09:48:43;;;;;;;3.30;0.80;;;;;;;11.26;50.15;96386.89;115382;1199;26229;-88
2021/10/22 09:51:24;;;;;;;0.80;0.70;;;;;;;11.25;49.75;96389.77;115406;1199;26037;-88
2021/10/22 09:53:53;;;;;;;1.20;0.50;;;;;;;11.18;49.94;96382.50;115531;1198;29076;-89
2021/10/22 09:56:25;;;;;;;2.00;1.00;;;;;;;11.04;49.96;96391.13;115222;1199;39245;-88
2021/10/22 09:59:00;;;;;;;3.20;1.00;;;;;;;10.95;50.37;96396.48;115409;1199;24275;-88
2021/10/22 10:01:36;;;;;;;1.40;0.60;;;;;;;10.94;50.28;96392.41;115303;1193;25155;-89
2021/10/22 10:04:07;;;;;;;2.00;0.60;;;;;;;10.95;50.50;96406.84;115395;1199;25905;-88
2021/10/22 10:06:34;;;;;;;;;;;;;;;11.02;50.38;96397.67;115448;1199;24352;-89
2021/10/22 10:09:06;;;;;;;1.10;0.50;;;;;;;11.08;50.56;96396.15;115455;1193;24012;-88
2021/10/22 10:11:34;;;;;;;1.10;0.80;;;;;;;11.18;50.45;96390.86;115532;1198;27278;-89
2021/10/22 10:14:03;;;;;;;1.50;0.60;;;;;;;11.30;50.00;96388.27;115539;1199;27517;-89
2021/10/22 10:16:34;;;;;;;2.70;0.60;;;;;;;11.33;49.84;96383.34;115529;1199;24054;-88
2021/10/22 10:19:06;;;;;;;2.70;0.70;;;;;;;11.19;49.37;96378.86;115488;1193;25365;-88
2021/10/22 10:21:43;;;;;;;1.40;0.50;;;;;;;11.15;49.70;96382.65;115565;1193;24086;-88
2021/10/22 10:24:13;;;;;;;1.50;0.70;;;;;;;11.30;49.33;96366.23;115557;1199;27828;-88
2021/10/22 10:26:43;;;;;;;2.10;0.80;;;;;;;11.44;48.92;96369.97;115448;1199;24641;-88
2021/10/22 10:29:28;;;;;;;3.70;0.60;;;;;;;11.62;49.15;96371.06;115487;1184;25662;-88
2021/10/22 10:32:01;;;;;;;1.70;0.40;;;;;;;11.89;48.30;96365.17;115413;1199;26312;-88
2021/10/22 10:34:52;;;;;;;0.40;0.40;;;;;;;12.03;46.11;96359.67;115435;1198;26539;-89
2021/10/22 10:37:27;;;;;;;1.50;0.60;;;;;;;11.98;45.67;96360.77;115508;1199;24984;-89
2021/10/22 10:40:02;;;;;;;0.40;0.40;;;;;;;11.98;46.00;96356.95;115415;1198;28444;-88
2021/10/22 10:42:38;;;;;;;1.40;0.40;;;;;;;11.92;44.89;96357.47;115560;1199;39740;-88
2021/10/22 10:45:10;;;;;;;0.90;0.50;;;;;;;11.65;45.04;96351.30;115583;1198;26620;-88
2021/10/22 10:47:52;;;;;;;0.60;0.40;;;;;;;11.66;44.69;96348.42;115541;1198;27178;-89
2021/10/22 10:50:23;;;;;;;0.50;0.30;;;;;;;11.82;44.69;96343.08;115423;1198;27327;-88
2021/10/22 10:52:59;;;;;;;1.00;0.30;;;;;;;11.97;45.03;96351.16;115468;1199;27900;-87
2021/10/22 10:55:32;;;;;;;1.20;0.50;;;;;;;12.13;44.46;96347.05;115565;1198;25828;-88
2021/10/22 10:58:16;;;;;;;1.50;0.30;;;;;;;12.25;44.59;96338.15;115556;1198;27305;-89
2021/10/22 11:00:45;;;;;;;1.10;0.40;;;;;;;12.37;43.30;96335.52;115463;1192;26522;-88
2021/10/22 11:03:16;;;;;;;2.50;0.40;;;;;;;12.46;43.67;96341.27;115600;1198;24634;-89
2021/10/22 11:06:16;;;;;;;1.50;0.60;;;;;;;12.54;42.63;96330.05;115668;1198;28167;-88
2021/10/22 11:08:51;;;;;;;0.80;0.40;;;;;;;12.55;41.42;96312.43;115453;1199;27748;-88
2021/10/22 11:11:38;;;;;;;0.40;0.30;;;;;;;12.50;40.50;96316.81;115363;1199;29682;-88
2021/10/22 11:14:21;;;;;;;0.70;0.40;;;;;;;12.53;40.57;96311.45;115417;1193;29531;-88
2021/10/22 11:16:58;;;;;;;1.00;0.60;;;;;;;12.59;40.41;96307.92;115399;1198;24835;-88
2021/10/22 11:19:32;;;;;;;0.40;0.40;;;;;;;12.61;40.14;96316.08;115399;1199;24711;-88
2021/10/22 11:22:02;;;;;;;1.40;0.60;;;;;;;12.66;40.16;96314.69;115429;1199;25176;-88
2021/10/22 11:24:32;;;;;;;0.70;0.40;;;;;;;12.72;38.94;96304.55;115523;1198;24927;-87
2021/10/22 11:27:03;;;;;;;2.10;0.50;;;;;;;12.67;38.67;96306.85;115485;1199;25963;-87
2021/10/22 11:29:32;;;;;;;1.70;0.50;;;;;;;12.66;38.32;96304.52;115511;1193;25793;-87
2021/10/22 11:32:03;;;;;;;0.90;0.30;;;;;;;12.66;37.72;96308.11;115489;1198;24378;-88
2021/10/22 11:34:35;;;;;;;2.00;0.30;;;;;;;12.67;37.56;96305.94;115416;1199;25851;-88
2021/10/22 11:37:06;;;;;;;1.50;0.40;;;;;;;12.71;37.39;96303.11;115461;1186;33691;-88
2021/10/22 11:39:37;;;;;;;0.30;0.30;;;;;;;12.75;37.24;96303.04;115460;1199;26263;-88
2021/10/22 11:42:08;;;;;;;0.40;0.20;;;;;;;12.76;37.35;96306.49;115480;1199;27396;-87
2021/10/22 11:44:38;;;;;;;0.70;0.20;;;;;;;12.81;37.62;96306.06;115507;1199;24868;-87